Terminal Aerodrome Forecast
Issued by NWS

Current Version | Previous Version | Graphics & Text | Print | Product List | Glossary On
Versions: 1 2 3 4 5 6 7 8 9 10 11 12 13 14 15 16 17 18 19 20
000
FTUS41 KPBZ 020538
TAFHLG
TAF
KHLG 020538Z 0206/0306 00000KT P6SM SCT250
     FM020700 00000KT 4SM BR SCT008
     FM020900 00000KT 1SM BR BKN008
     FM021300 32002KT 3SM BR SCT010 BKN120
     FM021500 32005KT P6SM SCT050=

USA.gov is the U.S. government's official web portal to all federal, state and local government web resources and services.